Aérodrome :
LOGIN :

S'inscrire | Disclaimer

   EN    FR    IT 

 










Légende :    VFR   VFR Marginal   IFR   IFR Intensif   IFR Très Intensif
Visi : 
Plafond : 
>= 8 km
>= 3000ft
5 à 8 km
1000 à 3000 ft
1500m à 5 km
500 à 1000 ft
800 à 1500m
200 à 500 ft
< 800m
< 200 ft
Symboles :   Orages  Brouillard  Fortes neiges  Fortes précipitations  Vent > 20 kt
SIGMETs :   Divers  Orages  Givrage  Turbulence  Onde Orograph.  Cendres Volcan.






- Altitude de l'aérodrome : 28 ft
- Code IATA : SOZ


LFKS - Solenzara

DERNIER METAR :
  • 190430Z AUTO 19009KT 9999 FEW045 BKN062 BKN240 13/10 Q1007

METARs EXPIRÉS :
  • 190400Z AUTO 17010KT 9999 FEW034 BKN043 BKN054 14/11 Q1006
  • 190330Z AUTO 18010KT 9999 BKN038 BKN064 14/11 Q1007
  • 190300Z AUTO 19010KT 9999 FEW034 BKN041 BKN100 14/11 Q1006
  • 190230Z AUTO 19008KT 9999 BKN037 BKN074 BKN092 14/11 Q1006
  • 190200Z AUTO 20008KT 9999 FEW028/// BKN037/// BKN047/// ///TCU 14/11 Q1006

TAF TAF LFKS
Valide du 18 à 15h jusqu'au 19 à 15h UTC


181400Z 1815/1915 30005KT 9999 BKN040TCU
TEMPO 1815/1909 4000 -SHRA
PROB30
TEMPO 1818/1909 18015G25KT
BECMG 1903/1905 18010KT SCT030 SCT100



MET'MAP, la Météo Aéronautique d'un coup d'oeil ! - Copyright ORBIFLY Décembre 2007 - Disclaimer

ORBIFLY MET'MAP TEAM :

Programmation & Développement : Alexandra Zaïnal
Conception & Développement : Baudouin d'Aumeries
Co-Programmation & Développement : Marc-Olivier Méhu
Soutien technique & logistique : Manuel Goepfert

Contact : metmap@orbifly.com




SOURCES & CREDITS :

   NOAA